Time;durP1;ratioP1;P1;durP2;ratioP2;P2;SDS_P1;SDS_P2;PMS_P1;PMS_P2;Temp;Humidity;BMP_temperature;BMP_pressure;BME280_temperature;BME280_humidity;BME280_pressure;Samples;Min_cycle;Max_cycle;Signal;HPM_P1;HPM_P2
2022/12/21 00:00:18;;;;;;;;;;;;;;;11.67;49.97;101200.41;5054379;28;20554;-41
2022/12/21 00:02:44;;;;;;;;;;;;;;;11.71;50.10;101206.91;5061954;28;19947;-36
2022/12/21 00:05:09;;;;;;;;;;;;;;;11.70;50.06;101202.59;5059469;28;19931;-40
2022/12/21 00:07:35;;;;;;;;;;;;;;;11.68;50.25;101196.66;5058134;28;19920;-42
2022/12/21 00:10:00;;;;;;;;;;;;;;;11.71;50.13;101198.84;5058712;28;20314;-42
2022/12/21 00:12:25;;;;;;;;;;;;;;;11.74;50.12;101198.34;5058986;28;19951;-40
2022/12/21 00:14:51;;;;;;;;;;;;;;;11.78;50.29;101198.69;5058540;28;19971;-41
2022/12/21 00:17:16;;;;;;;;;;;;;;;11.77;49.88;101195.19;5062245;28;20055;-37
2022/12/21 00:19:42;;;;;;;;;;;;;;;11.76;50.11;101198.13;5057420;28;19964;-41
2022/12/21 00:22:08;;;;;;;;;;;;;;;11.76;50.12;101193.56;5057494;28;19920;-40
2022/12/21 00:24:33;;;;;;;;;;;;;;;11.77;50.16;101184.44;5057702;28;19916;-41
2022/12/21 00:26:58;;;;;;;;;;;;;;;11.83;50.13;101189.91;5055463;28;19916;-40
2022/12/21 00:29:23;;;;;;;;;;;;;;;11.84;49.91;101188.84;5056515;28;19920;-40
2022/12/21 00:31:50;;;;;;;;;;;;;;;11.84;50.07;101194.22;5060606;28;19927;-43
2022/12/21 00:34:19;;;;;;;;;;;;;;;11.85;49.98;101193.16;5053724;28;19924;-43
2022/12/21 00:36:45;;;;;;;;;;;;;;;11.82;49.93;101183.72;5056245;28;19959;-39
2022/12/21 00:39:10;;;;;;;;;;;;;;;11.84;49.89;101172.75;5057984;28;19929;-37
2022/12/21 00:41:36;;;;;;;;;;;;;;;11.87;49.76;101177.66;5060735;28;19916;-41
2022/12/21 00:44:01;;;;;;;;;;;;;;;11.82;50.06;101180.22;5054984;28;19920;-39
2022/12/21 00:46:31;;;;;;;;;;;;;;;11.83;49.97;101169.25;5057379;28;19961;-42
2022/12/21 00:48:58;;;;;;;;;;;;;;;11.79;49.75;101176.97;5057186;28;19959;-39
2022/12/21 00:51:24;;;;;;;;;;;;;;;11.79;49.76;101158.19;5058707;28;20547;-40
2022/12/21 00:53:50;;;;;;;;;;;;;;;11.78;50.00;101166.47;5055807;28;19978;-40
2022/12/21 00:56:15;;;;;;;;;;;;;;;11.82;49.64;101164.13;5055689;28;19924;-40
2022/12/21 00:58:41;;;;;;;;;;;;;;;11.79;49.58;101168.94;5054152;28;20386;-40
2022/12/21 01:01:09;;;;;;;;;;;;;;;11.78;49.61;101164.63;5056908;28;19921;-40
2022/12/21 01:03:34;;;;;;;;;;;;;;;11.77;49.87;101159.47;5055603;28;19923;-40
2022/12/21 01:05:59;;;;;;;;;;;;;;;11.77;49.97;101160.28;5058208;28;20096;-41
2022/12/21 01:08:25;;;;;;;;;;;;;;;11.82;49.70;101161.44;5057052;28;20289;-39
2022/12/21 01:11:00;;;;;;;;;;;;;;;11.80;49.76;101167.88;5053088;28;20398;-42
2022/12/21 01:13:26;;;;;;;;;;;;;;;11.82;49.59;101169.50;5058118;28;20361;-40
2022/12/21 01:15:52;;;;;;;;;;;;;;;11.78;49.75;101166.47;5055073;28;19927;-41
2022/12/21 01:18:17;;;;;;;;;;;;;;;11.80;49.74;101167.06;5056585;28;19920;-41
2022/12/21 01:20:50;;;;;;;;;;;;;;;11.73;49.45;101167.22;5055765;28;19924;-40
2022/12/21 01:23:15;;;;;;;;;;;;;;;11.70;49.58;101166.88;5064230;28;19927;-40
2022/12/21 01:25:44;;;;;;;;;;;;;;;11.73;49.67;101161.03;5060199;28;19916;-38
2022/12/21 01:28:10;;;;;;;;;;;;;;;11.69;49.59;101163.41;5057979;28;19924;-40
2022/12/21 01:30:35;;;;;;;;;;;;;;;11.65;49.75;101158.75;5056680;28;20085;-40
2022/12/21 01:33:01;;;;;;;;;;;;;;;11.66;49.82;101165.72;5052391;28;19952;-40
2022/12/21 01:35:26;;;;;;;;;;;;;;;11.65;49.77;101159.56;5059258;28;19916;-39
2022/12/21 01:37:51;;;;;;;;;;;;;;;11.68;50.16;101153.72;5058637;28;19924;-40
2022/12/21 01:40:17;;;;;;;;;;;;;;;11.70;50.09;101156.97;5055715;28;19925;-37
2022/12/21 01:42:42;;;;;;;;;;;;;;;11.70;49.83;101156.97;5054785;28;19925;-41
2022/12/21 01:45:23;;;;;;;;;;;;;;;11.72;50.04;101160.22;5054534;28;20852;-39
2022/12/21 01:47:51;;;;;;;;;;;;;;;11.69;49.77;101149.16;5057485;28;20626;-42
2022/12/21 01:50:35;;;;;;;;;;;;;;;11.71;49.76;101158.59;5054079;28;19927;-42
2022/12/21 01:53:04;;;;;;;;;;;;;;;11.70;49.73;101161.53;5054776;28;19927;-39
2022/12/21 01:55:29;;;;;;;;;;;;;;;11.69;49.78;101149.97;5058019;28;19916;-40
2022/12/21 01:57:55;;;;;;;;;;;;;;;11.71;49.93;101157.78;5054712;28;19939;-39
2022/12/21 02:00:20;;;;;;;;;;;;;;;11.69;49.61;101147.28;5057729;28;20026;-41
2022/12/21 02:02:51;;;;;;;;;;;;;;;11.73;49.64;101142.25;5057340;28;20361;-40
2022/12/21 02:05:16;;;;;;;;;;;;;;;11.67;49.57;101144.03;5060170;28;20401;-39
2022/12/21 02:07:43;;;;;;;;;;;;;;;11.66;49.70;101149.63;5057412;28;19917;-41
2022/12/21 02:10:09;;;;;;;;;;;;;;;11.66;49.88;101144.25;5055240;28;20360;-41
2022/12/21 02:12:35;;;;;;;;;;;;;;;11.65;49.77;101140.75;5054976;28;19916;-41
2022/12/21 02:15:00;;;;;;;;;;;;;;;11.65;49.78;101137.25;5058133;28;19923;-40
2022/12/21 02:17:25;;;;;;;;;;;;;;;11.65;50.04;101134.59;5054371;28;19917;-38
2022/12/21 02:20:09;;;;;;;;;;;;;;;11.63;49.93;101132.16;5055569;28;19986;-39
2022/12/21 02:22:53;;;;;;;;;;;;;;;11.65;50.06;101131.91;5059717;28;19916;-39
2022/12/21 02:25:38;;;;;;;;;;;;;;;11.67;50.37;101127.94;5057152;28;19939;-42
2022/12/21 02:28:16;;;;;;;;;;;;;;;11.72;50.16;101127.19;5057035;28;19924;-41
2022/12/21 02:30:44;;;;;;;;;;;;;;;11.71;50.05;101134.44;5058504;28;19930;-42
2022/12/21 02:33:10;;;;;;;;;;;;;;;11.75;50.01;101135.56;5063539;28;19924;-40
2022/12/21 02:35:35;;;;;;;;;;;;;;;11.76;50.13;101126.44;5061934;28;19966;-37
2022/12/21 02:38:09;;;;;;;;;;;;;;;11.77;50.11;101120.00;5056497;28;19916;-39
2022/12/21 02:40:54;;;;;;;;;;;;;;;11.79;50.16;101119.78;5057074;28;20028;-40
2022/12/21 02:46:20;;;;;;;;;;;;;;;11.80;50.10;101116.88;5056802;28;20520;-39
2022/12/21 02:48:50;;;;;;;;;;;;;;;11.81;50.08;101112.31;5052183;28;20205;-39
2022/12/21 02:51:19;;;;;;;;;;;;;;;11.80;49.93;101114.19;5054340;28;19921;-40
2022/12/21 02:53:45;;;;;;;;;;;;;;;11.82;50.06;101115.81;5055114;28;19916;-42
2022/12/21 02:56:18;;;;;;;;;;;;;;;11.80;49.91;101111.50;5059411;28;20422;-39
2022/12/21 02:58:43;;;;;;;;;;;;;;;11.79;49.88;101104.50;5051001;28;19935;-42
2022/12/21 03:01:20;;;;;;;;;;;;;;;11.76;49.86;101104.97;5054585;28;20031;-41
2022/12/21 03:03:48;;;;;;;;;;;;;;;11.76;50.19;101101.47;5054471;28;19928;-39
2022/12/21 03:06:31;;;;;;;;;;;;;;;11.77;50.19;101095.84;5055813;28;19952;-42
2022/12/21 03:09:14;;;;;;;;;;;;;;;11.78;50.00;101099.34;5060435;28;20428;-38
2022/12/21 03:11:48;;;;;;;;;;;;;;;11.78;50.02;101105.56;5058148;28;20320;-41
2022/12/21 03:14:38;;;;;;;;;;;;;;;11.77;50.02;101108.47;5060593;28;19955;-39
2022/12/21 03:17:22;;;;;;;;;;;;;;;11.77;50.00;101103.09;5058012;28;19963;-41
2022/12/21 03:20:13;;;;;;;;;;;;;;;11.75;50.36;101100.66;5057808;28;20029;-41
2022/12/21 03:22:45;;;;;;;;;;;;;;;11.77;50.16;101098.53;5038676;28;20066;-39
2022/12/21 03:25:15;;;;;;;;;;;;;;;11.79;50.03;101101.81;5053099;28;19973;-38
2022/12/21 03:27:45;;;;;;;;;;;;;;;11.80;50.09;101092.69;5052840;28;20289;-40
2022/12/21 03:30:15;;;;;;;;;;;;;;;11.76;50.30;101090.72;5060483;28;19959;-39
2022/12/21 03:32:50;;;;;;;;;;;;;;;11.76;50.01;101096.09;5059312;28;19963;-39
2022/12/21 03:35:30;;;;;;;;;;;;;;;11.73;50.34;101091.22;5058708;28;20294;-42
2022/12/21 03:37:58;;;;;;;;;;;;;;;11.72;50.25;101095.78;5056361;28;20279;-43
2022/12/21 03:40:28;;;;;;;;;;;;;;;11.70;50.18;101092.53;5056437;28;20405;-41
2022/12/21 03:43:02;;;;;;;;;;;;;;;11.75;50.36;101089.94;5062234;28;20490;-40
2022/12/21 03:45:30;;;;;;;;;;;;;;;11.71;50.16;101088.00;5057702;28;20433;-39
2022/12/21 03:48:15;;;;;;;;;;;;;;;11.69;50.37;101090.94;5057459;28;19916;-38
2022/12/21 03:50:43;;;;;;;;;;;;;;;11.72;50.50;101095.78;5055485;28;19928;-41
2022/12/21 03:53:24;;;;;;;;;;;;;;;11.74;50.53;101096.34;5056462;28;19967;-40
2022/12/21 03:55:51;;;;;;;;;;;;;;;11.76;50.63;101091.56;5056208;28;19931;-42
2022/12/21 03:58:17;;;;;;;;;;;;;;;11.78;50.43;101093.97;5056095;28;19947;-40
2022/12/21 04:00:51;;;;;;;;;;;;;;;11.75;50.42;101084.56;5054590;28;19921;-40
2022/12/21 04:03:29;;;;;;;;;;;;;;;11.74;50.53;101090.97;5058764;28;20038;-39
2022/12/21 04:06:02;;;;;;;;;;;;;;;11.78;50.71;101085.94;5059160;28;19921;-40
2022/12/21 04:08:28;;;;;;;;;;;;;;;11.75;50.47;101078.38;5060986;28;19977;-42
2022/12/21 04:10:53;;;;;;;;;;;;;;;11.70;50.63;101071.06;5056942;28;19924;-42
2022/12/21 04:13:19;;;;;;;;;;;;;;;11.73;50.65;101077.81;5059489;28;20454;-39
2022/12/21 04:21:12;;;;;;;;;;;;;;;11.68;51.17;101070.50;5056991;28;20042;-39
2022/12/21 04:29:05;;;;;;;;;;;;;;;11.65;50.89;101068.28;5059129;28;19924;-41
2022/12/21 04:31:30;;;;;;;;;;;;;;;11.64;51.08;101066.66;5055070;28;19917;-42
2022/12/21 04:33:56;;;;;;;;;;;;;;;11.63;51.01;101064.25;5063069;28;19923;-39
2022/12/21 04:39:05;;;;;;;;;;;;;;;11.65;51.21;101068.28;5053985;28;20006;-43
2022/12/21 04:41:30;;;;;;;;;;;;;;;11.64;51.06;101066.66;5064416;28;19963;-43
2022/12/21 04:43:56;;;;;;;;;;;;;;;11.63;51.21;101067.72;5058590;28;19997;-39
2022/12/21 04:46:21;;;;;;;;;;;;;;;11.65;50.91;101073.66;5060865;28;19974;-41
2022/12/21 04:48:46;;;;;;;;;;;;;;;11.62;51.26;101066.09;5059190;28;19916;-41
2022/12/21 04:51:14;;;;;;;;;;;;;;;11.60;51.21;101064.72;5062144;28;20058;-42
2022/12/21 04:53:39;;;;;;;;;;;;;;;11.61;51.36;101061.00;5060339;28;20368;-39
2022/12/21 04:56:05;;;;;;;;;;;;;;;11.62;51.30;101066.09;5058530;28;20371;-41
2022/12/21 04:58:31;;;;;;;;;;;;;;;11.67;51.22;101054.63;5062454;28;20003;-41
2022/12/21 05:00:57;;;;;;;;;;;;;;;11.63;51.31;101054.31;5064126;28;20016;-39
2022/12/21 05:03:22;;;;;;;;;;;;;;;11.62;51.24;101055.38;5062656;28;19986;-41
2022/12/21 05:05:47;;;;;;;;;;;;;;;11.62;51.16;101041.97;5058624;28;19921;-42
2022/12/21 05:08:13;;;;;;;;;;;;;;;11.61;51.18;101051.06;5062680;28;20056;-39
2022/12/21 05:10:38;;;;;;;;;;;;;;;11.59;51.51;101057.75;5059574;28;19922;-41
2022/12/21 05:13:04;;;;;;;;;;;;;;;11.60;51.38;101052.13;5059133;28;19917;-39
2022/12/21 05:15:30;;;;;;;;;;;;;;;11.62;51.45;101057.25;5057647;28;20382;-41
2022/12/21 05:17:56;;;;;;;;;;;;;;;11.63;51.23;101059.69;5058979;28;19924;-38
2022/12/21 05:20:21;;;;;;;;;;;;;;;11.63;51.35;101066.91;5054878;28;20023;-41
2022/12/21 05:22:47;;;;;;;;;;;;;;;11.64;51.40;101066.66;5053695;28;20501;-39
2022/12/21 05:25:12;;;;;;;;;;;;;;;11.66;51.39;101051.13;5056065;28;19920;-40
2022/12/21 05:27:37;;;;;;;;;;;;;;;11.66;51.61;101053.81;5057071;28;19920;-43
2022/12/21 05:30:04;;;;;;;;;;;;;;;11.67;51.39;101057.31;5057535;28;19920;-39
2022/12/21 05:32:29;;;;;;;;;;;;;;;11.68;51.58;101056.28;5057755;28;19996;-42
2022/12/21 05:34:54;;;;;;;;;;;;;;;11.68;51.54;101051.72;5055796;28;20073;-40
2022/12/21 05:37:20;;;;;;;;;;;;;;;11.67;51.49;101049.25;5054886;28;19920;-38
2022/12/21 05:39:45;;;;;;;;;;;;;;;11.69;51.59;101056.03;5055327;28;20136;-41
2022/12/21 05:42:10;;;;;;;;;;;;;;;11.73;51.59;101057.16;5056667;28;19923;-40
2022/12/21 05:44:36;;;;;;;;;;;;;;;11.78;51.50;101056.41;5059556;28;20339;-41
2022/12/21 05:47:01;;;;;;;;;;;;;;;11.79;51.50;101058.88;5059250;28;20385;-39
2022/12/21 05:49:26;;;;;;;;;;;;;;;11.80;51.46;101060.50;5057140;28;20307;-41
2022/12/21 05:51:52;;;;;;;;;;;;;;;11.81;51.25;101055.94;5049664;28;20447;-37
2022/12/21 05:54:17;;;;;;;;;;;;;;;11.80;51.32;101065.84;5055180;28;20339;-37
2022/12/21 05:56:43;;;;;;;;;;;;;;;11.76;51.32;101070.06;5056563;28;20367;-40
2022/12/21 05:59:08;;;;;;;;;;;;;;;11.72;51.38;101058.22;5057305;28;20294;-39
2022/12/21 06:01:34;;;;;;;;;;;;;;;11.70;51.29;101063.03;5049950;28;19924;-41
2022/12/21 06:03:59;;;;;;;;;;;;;;;11.67;51.28;101063.53;5053651;28;19956;-41
2022/12/21 06:06:24;;;;;;;;;;;;;;;11.66;51.46;101064.56;5056111;28;19917;-41
2022/12/21 06:08:50;;;;;;;;;;;;;;;11.72;51.27;101074.31;5055376;28;19920;-38
2022/12/21 06:11:16;;;;;;;;;;;;;;;11.68;51.56;101069.69;5057232;28;20440;-40
2022/12/21 06:13:42;;;;;;;;;;;;;;;11.69;51.92;101074.81;5060288;28;19925;-41
2022/12/21 06:16:11;;;;;;;;;;;;;;;11.72;51.87;101076.19;5059999;28;19971;-42
2022/12/21 06:18:37;;;;;;;;;;;;;;;11.73;51.72;101075.13;5058132;28;20313;-40
2022/12/21 06:21:03;;;;;;;;;;;;;;;11.78;51.97;101083.25;5059125;28;19916;-40
2022/12/21 06:23:29;;;;;;;;;;;;;;;11.79;51.79;101084.91;5060093;28;19927;-41
2022/12/21 06:25:55;;;;;;;;;;;;;;;11.82;51.96;101078.22;5059358;28;19958;-39
2022/12/21 06:28:21;;;;;;;;;;;;;;;11.84;51.77;101082.28;5058332;28;20488;-40
2022/12/21 06:30:46;;;;;;;;;;;;;;;11.86;51.69;101076.69;5058744;28;19921;-41
2022/12/21 06:33:11;;;;;;;;;;;;;;;11.87;51.66;101081.00;5050417;28;20473;-40
2022/12/21 06:35:37;;;;;;;;;;;;;;;11.92;51.56;101083.75;5055225;28;19917;-39
2022/12/21 06:38:02;;;;;;;;;;;;;;;11.89;51.78;101079.69;5058615;28;20209;-37
2022/12/21 06:40:27;;;;;;;;;;;;;;;11.91;51.67;101071.38;5054335;28;20005;-41
2022/12/21 06:42:53;;;;;;;;;;;;;;;11.92;51.84;101081.06;5061023;28;19920;-38
2022/12/21 06:45:18;;;;;;;;;;;;;;;11.92;51.68;101083.75;5061839;28;19921;-41
2022/12/21 06:47:43;;;;;;;;;;;;;;;11.93;51.63;101078.13;5060627;28;19925;-37
2022/12/21 06:50:09;;;;;;;;;;;;;;;11.91;51.79;101088.28;5060289;28;19931;-41
2022/12/21 06:52:34;;;;;;;;;;;;;;;11.94;51.79;101089.66;5062797;28;20019;-41
2022/12/21 06:55:00;;;;;;;;;;;;;;;11.94;51.89;101085.09;5062059;28;20286;-39
2022/12/21 06:57:25;;;;;;;;;;;;;;;11.94;51.91;101085.09;5063140;28;20249;-41
2022/12/21 06:59:51;;;;;;;;;;;;;;;11.96;51.90;101084.84;5061063;28;20392;-41
2022/12/21 07:02:16;;;;;;;;;;;;;;;11.95;51.63;101084.03;5058330;28;19956;-41
2022/12/21 07:04:42;;;;;;;;;;;;;;;11.94;51.78;101082.41;5058806;28;19925;-40
2022/12/21 07:07:07;;;;;;;;;;;;;;;11.95;52.08;101081.34;5057910;28;19916;-41
2022/12/21 07:09:32;;;;;;;;;;;;;;;11.95;51.91;101083.22;5061338;28;19932;-38
2022/12/21 07:11:58;;;;;;;;;;;;;;;11.95;51.99;101081.34;5061336;28;19920;-42
2022/12/21 07:14:23;;;;;;;;;;;;;;;11.93;51.89;101080.00;5062728;28;20019;-39
2022/12/21 07:16:49;;;;;;;;;;;;;;;11.93;52.13;101082.66;5057948;28;19985;-39
2022/12/21 07:19:15;;;;;;;;;;;;;;;11.94;51.92;101084.28;5062260;28;19967;-39
2022/12/21 07:21:40;;;;;;;;;;;;;;;11.96;51.96;101084.84;5060284;28;19939;-40
2022/12/21 07:24:06;;;;;;;;;;;;;;;11.97;51.83;101089.16;5060916;28;20199;-40
2022/12/21 07:26:31;;;;;;;;;;;;;;;11.97;51.88;101097.22;5052252;28;19920;-40
2022/12/21 07:28:56;;;;;;;;;;;;;;;11.96;52.02;101095.59;5060743;28;20390;-41
2022/12/21 07:31:23;;;;;;;;;;;;;;;11.95;51.89;101100.16;5059095;28;19916;-39
2022/12/21 07:33:48;;;;;;;;;;;;;;;11.96;51.85;101091.03;5057371;28;19924;-40
2022/12/21 07:36:14;;;;;;;;;;;;;;;11.94;51.93;101092.34;5061088;28;19920;-42
2022/12/21 07:38:40;;;;;;;;;;;;;;;11.96;52.03;101091.03;5057494;28;19923;-42
2022/12/21 07:41:06;;;;;;;;;;;;;;;11.93;52.08;101098.78;5059579;28;20053;-42
2022/12/21 07:43:31;;;;;;;;;;;;;;;11.94;51.90;101097.72;5061993;28;20013;-41
2022/12/21 07:45:57;;;;;;;;;;;;;;;11.96;51.81;101092.91;5056380;28;20392;-40
2022/12/21 07:48:22;;;;;;;;;;;;;;;12.00;51.70;101092.16;5057331;28;19924;-43
2022/12/21 07:50:49;;;;;;;;;;;;;;;11.93;51.92;101096.09;5065344;28;19920;-41
2022/12/21 07:53:15;;;;;;;;;;;;;;;11.88;51.89;101082.63;5065428;28;19973;-40
2022/12/21 07:55:40;;;;;;;;;;;;;;;11.87;52.05;101081.81;5059162;28;20006;-41
2022/12/21 07:58:05;;;;;;;;;;;;;;;11.89;52.38;101086.91;5054298;28;19917;-43
2022/12/21 08:00:31;;;;;;;;;;;;;;;11.91;52.17;101087.47;5057913;28;19950;-40
2022/12/21 08:02:56;;;;;;;;;;;;;;;11.95;52.14;101094.78;5060576;28;19949;-40
2022/12/21 08:05:22;;;;;;;;;;;;;;;12.02;52.13;101091.91;5057508;28;19919;-38
2022/12/21 08:07:47;;;;;;;;;;;;;;;12.01;52.06;101101.84;5058817;28;19943;-40
2022/12/21 08:10:13;;;;;;;;;;;;;;;12.00;51.99;101104.78;5065275;28;20415;-40
2022/12/21 08:12:39;;;;;;;;;;;;;;;12.01;51.89;101098.34;5060388;28;20081;-39
2022/12/21 08:15:04;;;;;;;;;;;;;;;11.96;52.17;101093.72;5063322;28;19924;-40
2022/12/21 08:17:29;;;;;;;;;;;;;;;11.98;52.19;101098.84;5060329;28;20388;-38
2022/12/21 08:19:56;;;;;;;;;;;;;;;12.00;51.94;101094.03;5062937;28;19925;-40
2022/12/21 08:22:21;;;;;;;;;;;;;;;11.99;52.03;101100.47;5060369;28;20090;-40
2022/12/21 08:24:47;;;;;;;;;;;;;;;11.99;52.20;101092.41;5060618;28;20272;-40
2022/12/21 08:27:13;;;;;;;;;;;;;;;12.00;52.12;101099.41;5063050;28;19919;-39
2022/12/21 08:29:38;;;;;;;;;;;;;;;12.00;52.11;101107.47;5061356;28;20382;-40
2022/12/21 08:32:04;;;;;;;;;;;;;;;12.01;52.20;101106.41;5057191;28;20083;-39
2022/12/21 08:34:29;;;;;;;;;;;;;;;12.07;52.04;101108.91;5062019;28;19916;-40
2022/12/21 08:36:55;;;;;;;;;;;;;;;12.02;52.07;101113.41;5059287;28;19917;-39
2022/12/21 08:39:20;;;;;;;;;;;;;;;12.02;52.03;101118.75;5058984;28;19927;-39
2022/12/21 08:41:45;;;;;;;;;;;;;;;12.00;52.09;101118.19;5057082;28;19978;-38
2022/12/21 08:44:10;;;;;;;;;;;;;;;11.99;52.04;101109.34;5058180;28;19916;-41
2022/12/21 08:46:36;;;;;;;;;;;;;;;11.97;51.96;101111.47;5060708;28;19916;-37
2022/12/21 08:49:02;;;;;;;;;;;;;;;11.97;52.33;101110.66;5061343;28;19934;-39
2022/12/21 08:51:27;;;;;;;;;;;;;;;11.95;52.20;101110.09;5059092;28;19933;-38
2022/12/21 08:53:53;;;;;;;;;;;;;;;11.95;52.49;101104.72;5060875;28;20370;-41
2022/12/21 08:56:20;;;;;;;;;;;;;;;11.96;52.46;101112.53;5061139;28;20007;-39
2022/12/21 08:58:45;;;;;;;;;;;;;;;11.96;52.16;101103.66;5062701;28;21847;-39
2022/12/21 09:01:10;;;;;;;;;;;;;;;11.97;52.46;101118.69;5056462;28;19924;-40
2022/12/21 09:03:36;;;;;;;;;;;;;;;11.98;52.32;101112.28;5060677;28;19916;-40
2022/12/21 09:06:04;;;;;;;;;;;;;;;11.97;52.52;101111.47;5059124;28;19916;-40
2022/12/21 09:08:30;;;;;;;;;;;;;;;11.97;52.27;101119.50;5058240;28;19920;-41
2022/12/21 09:11:03;;;;;;;;;;;;;;;11.97;52.35;101116.84;5059873;28;19956;-40
2022/12/21 09:13:28;;;;;;;;;;;;;;;11.98;52.35;101121.13;5059783;28;20550;-39
2022/12/21 09:15:53;;;;;;;;;;;;;;;11.97;52.46;101130.25;5056459;28;19959;-39
2022/12/21 09:18:19;;;;;;;;;;;;;;;11.99;52.81;101121.94;5057729;28;20007;-41
2022/12/21 09:20:44;;;;;;;;;;;;;;;12.00;52.44;101119.00;5057253;28;19970;-40
2022/12/21 09:23:10;;;;;;;;;;;;;;;11.98;52.58;101123.00;5062553;28;19916;-40
2022/12/21 09:25:36;;;;;;;;;;;;;;;12.01;52.41;101119.81;5056098;28;20346;-41
2022/12/21 09:28:02;;;;;;;;;;;;;;;12.03;52.33;101123.09;5060457;28;19916;-40
2022/12/21 09:30:28;;;;;;;;;;;;;;;12.01;52.48;101133.25;5059304;28;19925;-40
2022/12/21 09:32:53;;;;;;;;;;;;;;;12.00;52.79;101137.81;5055951;28;19995;-40
2022/12/21 09:35:19;;;;;;;;;;;;;;;11.99;52.75;101138.06;5058120;28;19962;-40
2022/12/21 09:37:44;;;;;;;;;;;;;;;12.00;52.90;101134.31;5060521;28;19920;-38
2022/12/21 09:40:11;;;;;;;;;;;;;;;12.01;53.03;101134.06;5055928;28;20492;-40
2022/12/21 09:42:42;;;;;;;;;;;;;;;12.07;52.99;101126.91;5054790;28;19917;-41
2022/12/21 09:45:28;;;;;;;;;;;;;;;12.10;52.94;101123.72;5060537;28;19991;-38
2022/12/21 09:47:56;;;;;;;;;;;;;;;12.11;53.17;101114.59;5055908;28;19935;-40
2022/12/21 09:50:29;;;;;;;;;;;;;;;12.14;52.95;101116.78;5058303;28;19917;-40
2022/12/21 09:53:03;;;;;;;;;;;;;;;12.15;53.33;101114.91;5056341;28;19928;-38
2022/12/21 09:55:34;;;;;;;;;;;;;;;12.15;53.15;101114.91;5058963;28;19925;-39
2022/12/21 09:58:03;;;;;;;;;;;;;;;12.21;53.02;101109.38;5055018;28;19966;-40
2022/12/21 10:00:31;;;;;;;;;;;;;;;12.20;53.18;101120.34;5059230;28;19978;-39
2022/12/21 10:03:08;;;;;;;;;;;;;;;12.21;53.38;101130.84;5059864;28;19917;-41
2022/12/21 10:05:37;;;;;;;;;;;;;;;12.22;53.26;101121.75;5057099;28;19924;-39
2022/12/21 10:08:18;;;;;;;;;;;;;;;12.21;53.25;101122.81;5057572;28;19952;-39
2022/12/21 10:10:54;;;;;;;;;;;;;;;12.24;53.27;101118.81;5055861;28;19976;-40
2022/12/21 10:13:19;;;;;;;;;;;;;;;12.27;53.44;101112.91;5060751;28;20573;-39
2022/12/21 10:15:54;;;;;;;;;;;;;;;12.29;53.48;101114.28;5060804;28;19959;-41
2022/12/21 10:18:32;;;;;;;;;;;;;;;12.28;53.29;101109.97;5060508;28;19924;-38
2022/12/21 10:21:13;;;;;;;;;;;;;;;12.25;53.28;101115.06;5066208;28;20417;-37
2022/12/21 10:23:40;;;;;;;;;;;;;;;12.28;53.19;101109.16;5064061;28;19971;-37
2022/12/21 10:26:10;;;;;;;;;;;;;;;12.21;53.29;101108.53;5063157;28;20003;-40
2022/12/21 10:28:38;;;;;;;;;;;;;;;12.20;53.70;101102.34;5064220;28;19936;-40
2022/12/21 10:31:05;;;;;;;;;;;;;;;12.26;53.87;101095.19;5060512;28;19978;-40
2022/12/21 10:33:32;;;;;;;;;;;;;;;12.21;53.72;101095.94;5061756;28;20329;-39
2022/12/21 10:36:00;;;;;;;;;;;;;;;12.24;53.60;101106.19;5060357;28;20389;-40
2022/12/21 10:38:28;;;;;;;;;;;;;;;12.24;53.88;101110.75;5062433;28;20659;-40
2022/12/21 10:40:54;;;;;;;;;;;;;;;12.26;53.72;101106.75;5065203;28;19924;-41
2022/12/21 10:43:20;;;;;;;;;;;;;;;12.27;53.89;101108.34;5061949;28;19923;-40
2022/12/21 10:45:46;;;;;;;;;;;;;;;12.32;53.93;101103.03;5058365;28;19940;-40
2022/12/21 10:48:11;;;;;;;;;;;;;;;12.32;53.78;101100.34;5061485;28;19916;-40
2022/12/21 10:50:39;;;;;;;;;;;;;;;12.31;54.32;101093.34;5063673;28;19920;-39
2022/12/21 10:53:24;;;;;;;;;;;;;;;12.40;53.92;101104.50;5053845;28;19959;-39
2022/12/21 10:55:59;;;;;;;;;;;;;;;12.38;53.87;101095.84;5065327;28;19920;-40
2022/12/21 10:58:29;;;;;;;;;;;;;;;12.33;53.84;101101.97;5059370;28;19970;-40
2022/12/21 11:01:04;;;;;;;;;;;;;;;12.33;54.09;101091.22;5061967;28;19934;-40
2022/12/21 11:03:34;;;;;;;;;;;;;;;12.38;53.87;101093.97;5063043;28;19967;-39
2022/12/21 11:06:16;;;;;;;;;;;;;;;12.34;54.26;101089.34;5059138;28;19931;-40
2022/12/21 11:08:51;;;;;;;;;;;;;;;12.33;54.44;101087.72;5053869;28;19916;-40
2022/12/21 11:11:27;;;;;;;;;;;;;;;12.34;54.40;101079.41;5058399;28;20380;-38
2022/12/21 11:14:00;;;;;;;;;;;;;;;12.33;54.69;101064.34;5062089;28;19917;-39
2022/12/21 11:16:28;;;;;;;;;;;;;;;12.39;54.74;101066.06;5063566;28;19920;-40
2022/12/21 11:18:57;;;;;;;;;;;;;;;12.47;54.57;101070.16;5061535;28;19979;-40
2022/12/21 11:21:28;;;;;;;;;;;;;;;12.53;54.56;101073.69;5056647;28;19970;-40
2022/12/21 11:23:55;;;;;;;;;;;;;;;12.52;54.36;101069.41;5062350;28;20277;-39
2022/12/21 11:26:23;;;;;;;;;;;;;;;12.52;54.33;101064.03;5059713;28;19952;-39
2022/12/21 11:28:49;;;;;;;;;;;;;;;12.53;54.43;101069.13;5051757;28;19962;-41
2022/12/21 11:31:15;;;;;;;;;;;;;;;12.55;54.28;101072.38;5058730;28;19920;-39
2022/12/21 11:33:43;;;;;;;;;;;;;;;12.53;54.35;101071.00;5058170;28;20011;-40
2022/12/21 11:36:09;;;;;;;;;;;;;;;12.51;54.54;101076.66;5059758;28;19924;-41
2022/12/21 11:38:35;;;;;;;;;;;;;;;12.52;54.44;101072.88;5055452;28;19916;-40
2022/12/21 11:41:00;;;;;;;;;;;;;;;12.52;54.74;101066.72;5063783;28;19920;-40
2022/12/21 11:43:25;;;;;;;;;;;;;;;12.56;54.88;101062.44;5051176;28;19925;-41
2022/12/21 11:45:54;;;;;;;;;;;;;;;12.60;54.74;101064.41;5059203;28;19999;-40
2022/12/21 11:48:40;;;;;;;;;;;;;;;12.64;54.81;101064.69;5054697;28;19924;-40
2022/12/21 11:51:24;;;;;;;;;;;;;;;12.66;54.72;101066.06;5060791;28;20289;-40
2022/12/21 11:53:58;;;;;;;;;;;;;;;12.68;54.80;101052.34;5061523;28;20375;-40
2022/12/21 11:56:23;;;;;;;;;;;;;;;12.71;54.94;101060.72;5058751;28;20236;-41
2022/12/21 11:59:09;;;;;;;;;;;;;;;12.75;54.70;101061.03;5059108;28;20021;-41
2022/12/21 12:01:54;;;;;;;;;;;;;;;12.75;54.72;101055.66;5060616;28;20139;-40
2022/12/21 12:04:26;;;;;;;;;;;;;;;12.76;54.58;101046.53;5056064;28;19920;-39
2022/12/21 12:07:10;;;;;;;;;;;;;;;12.76;54.68;101053.78;5060338;28;19970;-41
2022/12/21 12:09:35;;;;;;;;;;;;;;;12.78;54.68;101039.03;5058693;28;20357;-41
2022/12/21 12:12:19;;;;;;;;;;;;;;;12.82;54.63;101050.06;5058129;28;19924;-40
2022/12/21 12:14:53;;;;;;;;;;;;;;;12.80;54.69;101047.63;5057464;28;19946;-40
2022/12/21 12:17:18;;;;;;;;;;;;;;;12.81;54.57;101045.75;5059270;28;20303;-40
2022/12/21 12:20:02;;;;;;;;;;;;;;;12.83;54.44;101038.25;5052474;28;19928;-39
2022/12/21 12:22:33;;;;;;;;;;;;;;;12.80;54.76;101030.69;5056336;28;20067;-41
2022/12/21 12:25:22;;;;;;;;;;;;;;;12.82;54.63;101029.38;5056768;28;19998;-40
2022/12/21 12:27:51;;;;;;;;;;;;;;;12.81;54.53;101030.44;5055698;28;19920;-39
2022/12/21 12:30:20;;;;;;;;;;;;;;;12.80;54.46;101034.19;5057929;28;19928;-38
2022/12/21 12:32:51;;;;;;;;;;;;;;;12.77;54.49;101028.53;5056102;28;19952;-40
2022/12/21 12:35:43;;;;;;;;;;;;;;;12.74;54.62;101032.50;5058960;28;19917;-40
2022/12/21 12:38:15;;;;;;;;;;;;;;;12.73;54.61;101032.75;5052303;28;19924;-41
2022/12/21 12:41:12;;;;;;;;;;;;;;;12.69;55.05;101029.78;5055334;28;19920;-40
2022/12/21 12:43:50;;;;;;;;;;;;;;;12.73;55.17;101036.25;5046975;28;19965;-41
2022/12/21 12:46:15;;;;;;;;;;;;;;;12.76;54.95;101030.41;5059757;28;19920;-39
2022/12/21 12:49:04;;;;;;;;;;;;;;;12.79;55.25;101029.88;5059169;28;20356;-39
2022/12/21 12:51:38;;;;;;;;;;;;;;;12.84;55.26;101032.63;5058446;28;20002;-39
2022/12/21 12:54:24;;;;;;;;;;;;;;;12.88;54.89;101028.34;5058571;28;20507;-38
2022/12/21 12:57:28;;;;;;;;;;;;;;;12.90;54.87;101028.88;5053473;28;19923;-39
2022/12/21 13:00:11;;;;;;;;;;;;;;;12.97;55.15;101026.00;5055294;28;19924;-38